Time;durP1;ratioP1;P1;durP2;ratioP2;P2;SDS_P1;SDS_P2;PMS_P1;PMS_P2;Temp;Humidity;BMP_temperature;BMP_pressure;BME280_temperature;BME280_humidity;BME280_pressure;Samples;Min_cycle;Max_cycle;Signal;HPM_P1;HPM_P2
2021/01/03 00:01:53;;;;;;;59.05;24.90;;;2.80;97.10;;;;;;5052471;28;20025;-66
2021/01/03 00:04:19;;;;;;;55.78;24.48;;;2.80;97.10;;;;;;5062789;28;20323;-66
2021/01/03 00:06:45;;;;;;;60.58;25.15;;;2.80;97.10;;;;;;5056772;28;20104;-66
2021/01/03 00:09:11;;;;;;;64.15;26.17;;;2.80;97.10;;;;;;5057703;28;20031;-66
2021/01/03 00:11:37;;;;;;;63.15;25.77;;;2.80;97.10;;;;;;5071091;22;20406;-69
2021/01/03 00:14:05;;;;;;;60.85;26.10;;;2.80;97.10;;;;;;5036234;28;20021;-69
2021/01/03 00:16:31;;;;;;;68.38;26.25;;;2.80;97.00;;;;;;5045956;28;20032;-68
2021/01/03 00:18:57;;;;;;;61.95;25.63;;;2.80;97.00;;;;;;5054911;28;20032;-69
2021/01/03 00:21:22;;;;;;;65.70;26.25;;;2.80;97.00;;;;;;5043982;28;20111;-67
2021/01/03 00:23:48;;;;;;;68.82;26.65;;;2.80;97.00;;;;;;5050047;28;20044;-69
2021/01/03 00:26:13;;;;;;;68.82;26.55;;;2.80;97.00;;;;;;5037110;28;20060;-68
2021/01/03 00:28:39;;;;;;;62.13;27.27;;;2.80;97.00;;;;;;5044099;28;20036;-68
2021/01/03 00:31:04;;;;;;;67.75;26.63;;;2.80;97.00;;;;;;5045662;28;20457;-69
2021/01/03 00:33:30;;;;;;;72.05;26.92;;;2.70;97.00;;;;;;5050519;28;20029;-69
2021/01/03 00:35:56;;;;;;;70.75;27.38;;;2.80;97.00;;;;;;5048428;28;20516;-69
2021/01/03 00:38:21;;;;;;;71.40;26.08;;;2.80;97.00;;;;;;5049327;28;20033;-67
2021/01/03 00:40:47;;;;;;;57.28;25.73;;;2.70;97.00;;;;;;5045727;28;20122;-69
2021/01/03 00:43:13;;;;;;;76.78;27.63;;;2.70;97.00;;;;;;5048789;28;20149;-69
2021/01/03 00:45:40;;;;;;;63.45;26.77;;;2.70;96.90;;;;;;5044336;28;20229;-69
2021/01/03 00:48:07;;;;;;;68.00;27.73;;;2.70;97.00;;;;;;5026453;28;20040;-69
2021/01/03 00:50:33;;;;;;;70.43;28.95;;;2.80;97.00;;;;;;5021199;28;20071;-69
2021/01/03 00:52:59;;;;;;;79.35;30.13;;;2.70;97.00;;;;;;5016082;28;20021;-67
2021/01/03 00:55:25;;;;;;;74.28;29.58;;;2.70;97.00;;;;;;5014977;28;20036;-67
2021/01/03 00:57:51;;;;;;;75.90;30.73;;;2.80;97.00;;;;;;5013061;28;20034;-68
2021/01/03 01:00:24;;;;;;;83.38;31.17;;;2.70;97.00;;;;;;5014023;28;20028;-67
2021/01/03 01:02:50;;;;;;;79.53;29.67;;;2.70;97.10;;;;;;5013018;28;20516;-68
2021/01/03 01:05:16;;;;;;;82.72;32.45;;;2.70;97.10;;;;;;5014000;28;20044;-68
2021/01/03 01:07:42;;;;;;;84.30;29.90;;;2.70;97.10;;;;;;5011280;28;20043;-67
2021/01/03 01:10:11;;;;;;;84.70;31.85;;;2.70;97.10;;;;;;5019233;28;20025;-67
2021/01/03 01:12:38;;;;;;;78.75;30.23;;;2.70;97.20;;;;;;5012158;28;20623;-69
2021/01/03 01:15:13;;;;;;;94.57;30.73;;;2.70;97.20;;;;;;5013437;28;20025;-70
2021/01/03 01:17:41;;;;;;;78.75;29.90;;;2.70;97.20;;;;;;5011990;28;20071;-68
2021/01/03 01:20:08;;;;;;;79.88;30.17;;;2.70;97.20;;;;;;5012703;28;20055;-67
2021/01/03 01:22:34;;;;;;;85.97;30.55;;;2.70;97.20;;;;;;5012197;28;20033;-68
2021/01/03 01:24:59;;;;;;;86.82;31.65;;;2.70;97.20;;;;;;5013392;28;20491;-69
2021/01/03 01:27:25;;;;;;;84.30;32.00;;;2.70;97.20;;;;;;5015867;28;20076;-69
2021/01/03 01:29:51;;;;;;;86.90;31.70;;;2.70;97.20;;;;;;5011470;28;20120;-66
2021/01/03 01:32:16;;;;;;;82.90;30.73;;;2.70;97.30;;;;;;5012341;28;20044;-67
2021/01/03 01:34:42;;;;;;;92.40;30.58;;;2.70;97.30;;;;;;5012546;28;20029;-69
2021/01/03 01:37:07;;;;;;;82.03;31.33;;;2.70;97.20;;;;;;5012256;28;20578;-67
2021/01/03 01:39:33;;;;;;;91.43;30.40;;;2.70;97.30;;;;;;5019977;28;20424;-69
2021/01/03 01:41:59;;;;;;;94.68;32.45;;;2.70;97.30;;;;;;5031260;28;20029;-69
2021/01/03 01:44:24;;;;;;;89.15;32.25;;;2.70;97.30;;;;;;5040608;28;20035;-69
2021/01/03 01:47:02;;;;;;;101.75;32.58;;;2.70;97.30;;;;;;5054848;28;20130;-69
2021/01/03 01:49:28;;;;;;;90.10;32.15;;;2.60;97.30;;;;;;5026263;28;20041;-69
2021/01/03 01:51:55;;;;;;;98.63;33.90;;;2.60;97.30;;;;;;5028626;28;20032;-69
2021/01/03 01:54:30;;;;;;;94.05;32.28;;;2.70;97.30;;;;;;5029668;28;20033;-69
2021/01/03 01:57:08;;;;;;;100.25;32.95;;;2.60;97.30;;;;;;5053770;28;20056;-69
2021/01/03 01:59:51;;;;;;;100.90;33.28;;;2.60;97.30;;;;;;5037856;28;20040;-68
2021/01/03 02:02:26;;;;;;;96.18;34.05;;;2.70;97.30;;;;;;5046397;28;20025;-68
2021/01/03 02:05:23;;;;;;;98.22;33.85;;;2.70;97.30;;;;;;5030936;28;20041;-69
2021/01/03 02:08:02;;;;;;;94.90;33.05;;;2.70;97.30;;;;;;5046928;28;20024;-68
2021/01/03 02:10:39;;;;;;;106.03;33.78;;;2.70;97.30;;;;;;5041348;28;20037;-68
2021/01/03 02:13:04;;;;;;;102.82;33.88;;;2.70;97.40;;;;;;5046649;28;20120;-69
2021/01/03 02:15:32;;;;;;;107.00;34.55;;;2.70;97.30;;;;;;5047569;28;20112;-68
2021/01/03 02:18:01;;;;;;;98.35;32.72;;;2.70;97.30;;;;;;5041169;28;20021;-68
2021/01/03 02:20:32;;;;;;;90.68;31.27;;;2.70;97.30;;;;;;5046850;28;20465;-68
2021/01/03 02:23:02;;;;;;;102.50;34.28;;;2.70;97.30;;;;;;5025695;28;20045;-68
2021/01/03 02:25:28;;;;;;;90.43;33.00;;;2.70;97.30;;;;;;5034532;28;20120;-67
2021/01/03 02:28:14;;;;;;;103.15;34.20;;;2.70;97.30;;;;;;5046691;28;20039;-68
2021/01/03 02:30:43;;;;;;;93.10;35.25;;;2.70;97.30;;;;;;5039653;28;20106;-68
2021/01/03 02:33:25;;;;;;;88.65;32.13;;;2.70;97.30;;;;;;5049877;28;20060;-68
2021/01/03 02:36:05;;;;;;;91.20;34.22;;;2.70;97.20;;;;;;5044835;28;20380;-68
2021/01/03 02:38:33;;;;;;;97.28;33.35;;;2.70;97.20;;;;;;5031784;28;20205;-67
2021/01/03 02:40:59;;;;;;;93.35;32.33;;;2.60;97.20;;;;;;5037432;28;20040;-69
2021/01/03 02:43:25;;;;;;;94.32;33.03;;;2.60;97.20;;;;;;5027776;28;20033;-68
2021/01/03 02:45:51;;;;;;;88.50;32.15;;;2.70;97.20;;;;;;5038179;28;20078;-69
2021/01/03 02:48:22;;;;;;;98.00;33.55;;;2.70;97.20;;;;;;5035862;28;20143;-69
2021/01/03 02:50:48;;;;;;;94.80;32.10;;;2.60;97.20;;;;;;5032638;28;20029;-66
2021/01/03 02:53:15;;;;;;;92.68;32.95;;;2.60;97.20;;;;;;5050498;28;20036;-69
2021/01/03 02:55:41;;;;;;;90.82;31.50;;;2.70;97.20;;;;;;5039707;28;20034;-69
2021/01/03 02:58:06;;;;;;;92.95;33.45;;;2.60;97.20;;;;;;5031118;28;20031;-68
2021/01/03 03:00:36;;;;;;;87.82;31.98;;;2.60;97.20;;;;;;5047169;28;20028;-69
2021/01/03 03:03:03;;;;;;;93.90;33.60;;;2.70;97.20;;;;;;5041053;28;20412;-69
2021/01/03 03:05:29;;;;;;;92.78;32.45;;;2.70;97.20;;;;;;5046208;28;20452;-68
2021/01/03 03:07:55;;;;;;;92.40;32.15;;;2.60;97.10;;;;;;5039945;28;20187;-69
2021/01/03 03:10:21;;;;;;;91.45;32.45;;;2.60;97.10;;;;;;5054260;28;20025;-67
2021/01/03 03:12:53;;;;;;;91.57;31.98;;;2.60;97.10;;;;;;5033051;28;20041;-69
2021/01/03 03:15:19;;;;;;;;;;;2.60;97.10;;;;;;5026302;28;20034;-66
2021/01/03 03:17:44;;;;;;;80.43;31.38;;;2.60;97.10;;;;;;5037305;28;19940;-69
2021/01/03 03:20:11;;;;;;;84.90;31.30;;;2.60;97.10;;;;;;5041175;28;20047;-68
2021/01/03 03:22:37;;;;;;;91.38;32.90;;;2.60;97.00;;;;;;5045548;28;20410;-67
2021/01/03 03:25:05;;;;;;;82.18;31.50;;;2.60;97.00;;;;;;5030238;28;20017;-67
2021/01/03 03:27:31;;;;;;;85.97;32.25;;;2.60;97.00;;;;;;5045572;28;20108;-68
2021/01/03 03:29:56;;;;;;;84.38;32.33;;;2.60;97.00;;;;;;5047718;28;20108;-68
2021/01/03 03:32:22;;;;;;;86.63;32.60;;;2.60;97.00;;;;;;5047765;28;20082;-68
2021/01/03 03:34:48;;;;;;;91.00;31.20;;;2.60;97.00;;;;;;5044956;28;20030;-68
2021/01/03 03:37:13;;;;;;;75.68;31.65;;;2.60;97.00;;;;;;5044601;28;20655;-68
2021/01/03 03:39:39;;;;;;;85.22;31.77;;;2.60;96.90;;;;;;5029931;28;20026;-69
2021/01/03 03:42:04;;;;;;;92.78;32.08;;;2.60;97.00;;;;;;5040337;28;20086;-68
2021/01/03 03:44:30;;;;;;;89.13;33.05;;;2.60;97.00;;;;;;5048172;28;20071;-68
2021/01/03 03:47:02;;;;;;;97.85;33.33;;;2.60;97.00;;;;;;5038530;28;20480;-67
2021/01/03 03:49:29;;;;;;;79.63;32.10;;;2.50;97.00;;;;;;5050134;28;20036;-68
2021/01/03 03:51:56;;;;;;;86.60;30.98;;;2.50;96.90;;;;;;5041853;28;20025;-68
2021/01/03 03:54:22;;;;;;;75.78;29.70;;;2.60;96.90;;;;;;5049706;28;20036;-68
2021/01/03 03:57:04;;;;;;;73.35;29.20;;;2.50;96.90;;;;;;5046790;28;20426;-68
2021/01/03 03:59:30;;;;;;;84.75;30.17;;;2.50;96.90;;;;;;5033081;28;20029;-68
2021/01/03 04:01:56;;;;;;;76.40;30.02;;;2.50;96.90;;;;;;5050134;28;20548;-67
2021/01/03 04:04:24;;;;;;;79.20;29.08;;;2.50;96.90;;;;;;5050032;28;20103;-68
2021/01/03 04:06:51;;;;;;;76.22;30.35;;;2.50;96.80;;;;;;5050478;28;20036;-68
2021/01/03 04:09:18;;;;;;;71.18;29.80;;;2.50;96.90;;;;;;5033795;28;20060;-68
2021/01/03 04:11:46;;;;;;;81.35;30.75;;;2.50;96.90;;;;;;5050450;28;20048;-69
2021/01/03 04:14:15;;;;;;;76.88;29.45;;;2.40;96.80;;;;;;5033833;28;20527;-67
2021/01/03 04:16:58;;;;;;;80.38;31.30;;;2.30;96.80;;;;;;5047197;28;20094;-68
2021/01/03 04:19:25;;;;;;;78.63;30.08;;;2.30;96.80;;;;;;5040938;28;20031;-68
2021/01/03 04:21:59;;;;;;;82.55;28.38;;;2.30;96.80;;;;;;5039648;28;20548;-68
2021/01/03 04:24:26;;;;;;;80.47;30.48;;;2.20;96.80;;;;;;5048676;28;20075;-68
2021/01/03 04:26:55;;;;;;;80.00;28.98;;;2.20;96.80;;;;;;5053544;28;20029;-68
2021/01/03 04:29:21;;;;;;;74.22;27.23;;;2.20;96.80;;;;;;5047810;28;20143;-69
2021/01/03 04:31:52;;;;;;;82.82;30.42;;;2.20;96.80;;;;;;5047052;28;20031;-68
2021/01/03 04:34:18;;;;;;;81.00;30.27;;;2.20;96.90;;;;;;5040808;28;20223;-68
2021/01/03 04:36:48;;;;;;;83.55;29.65;;;2.30;96.90;;;;;;5052918;28;20494;-68
2021/01/03 04:39:13;;;;;;;74.25;27.48;;;2.20;96.80;;;;;;5049689;28;20217;-68
2021/01/03 04:41:41;;;;;;;69.88;26.98;;;2.30;96.80;;;;;;5050437;28;20043;-68
2021/01/03 04:44:17;;;;;;;73.20;28.17;;;2.30;96.70;;;;;;5037606;28;20066;-68
2021/01/03 04:46:43;;;;;;;74.80;27.67;;;2.40;96.60;;;;;;5050102;28;20029;-68
2021/01/03 04:49:18;;;;;;;65.70;27.58;;;2.40;96.60;;;;;;5028394;28;20578;-67
2021/01/03 04:52:17;;;;;;;67.40;25.85;;;2.40;96.50;;;;;;5043322;28;20399;-69
2021/01/03 04:55:07;;;;;;;70.80;26.80;;;2.40;96.30;;;;;;5050445;28;20110;-69
2021/01/03 04:58:15;;;;;;;59.28;24.48;;;2.50;96.30;;;;;;5045838;28;20120;-67
2021/01/03 05:00:58;;;;;;;65.88;27.00;;;2.50;96.20;;;;;;5026730;28;20346;-69
2021/01/03 05:04:06;;;;;;;67.97;26.73;;;2.50;96.20;;;;;;5041590;28;20115;-68
2021/01/03 05:06:32;;;;;;;62.30;25.75;;;2.50;96.10;;;;;;5040918;28;20068;-69
2021/01/03 05:09:06;;;;;;;57.03;26.02;;;2.60;96.00;;;;;;5034414;28;20060;-68
2021/01/03 05:11:43;;;;;;;66.35;27.20;;;2.50;96.00;;;;;;5028190;28;20041;-67
2021/01/03 05:14:29;;;;;;;70.15;27.50;;;2.60;96.20;;;;;;5043160;28;20028;-69
2021/01/03 05:16:56;;;;;;;69.35;27.13;;;2.60;96.20;;;;;;5049268;28;20057;-69
2021/01/03 05:19:22;;;;;;;64.20;25.40;;;2.60;96.30;;;;;;5031184;28;20033;-69
2021/01/03 05:21:56;;;;;;;68.32;27.30;;;2.60;96.30;;;;;;5049228;28;20051;-64
2021/01/03 05:24:24;;;;;;;71.60;27.60;;;2.60;96.20;;;;;;5035681;28;20100;-64
2021/01/03 05:26:50;;;;;;;69.90;25.40;;;2.60;96.10;;;;;;5049200;28;20487;-63
2021/01/03 05:29:27;;;;;;;54.65;23.70;;;2.60;96.10;;;;;;5052089;28;20089;-63
2021/01/03 05:32:05;;;;;;;60.42;24.45;;;2.60;96.10;;;;;;5049090;28;20040;-63
2021/01/03 05:34:35;;;;;;;56.10;23.30;;;2.60;96.10;;;;;;5046943;28;20029;-63
2021/01/03 05:37:09;;;;;;;50.83;23.53;;;2.60;95.90;;;;;;5046674;28;20178;-62
2021/01/03 05:39:35;;;;;;;55.47;22.52;;;2.60;95.90;;;;;;5046304;28;20496;-64
2021/01/03 05:42:12;;;;;;;46.63;20.95;;;2.60;95.80;;;;;;5049651;28;20418;-63
2021/01/03 05:44:41;;;;;;;44.35;19.77;;;2.60;95.80;;;;;;5046610;28;20043;-63
2021/01/03 05:47:27;;;;;;;42.67;20.00;;;2.60;95.70;;;;;;5050811;28;20085;-64
2021/01/03 05:50:23;;;;;;;43.63;19.77;;;2.60;95.60;;;;;;5037747;28;20031;-63
2021/01/03 05:53:12;;;;;;;44.15;18.83;;;2.60;95.50;;;;;;5035282;28;20029;-63
2021/01/03 05:55:49;;;;;;;42.03;18.77;;;2.60;95.50;;;;;;5040501;28;20032;-63
2021/01/03 05:58:27;;;;;;;45.33;19.00;;;2.60;95.50;;;;;;5051585;28;20028;-62
2021/01/03 06:00:53;;;;;;;48.33;18.83;;;2.60;95.50;;;;;;5033737;28;20377;-62
2021/01/03 06:03:29;;;;;;;43.90;17.45;;;2.60;95.30;;;;;;5029693;28;20029;-63
2021/01/03 06:06:08;;;;;;;40.78;17.73;;;2.60;95.20;;;;;;5048474;28;20399;-63
2021/01/03 06:08:36;;;;;;;39.58;18.10;;;2.60;95.10;;;;;;5042923;28;20035;-64
2021/01/03 06:13:52;;;;;;;38.45;17.15;;;2.60;95.10;;;;;;5094742;22;20350;-67
2021/01/03 06:16:22;;;;;;;33.88;16.13;;;2.60;95.00;;;;;;5072602;28;20024;-66
2021/01/03 06:18:51;;;;;;;41.78;17.92;;;2.60;95.20;;;;;;5061484;28;20117;-68
2021/01/03 06:21:24;;;;;;;35.92;16.70;;;2.70;95.20;;;;;;5056372;28;20052;-67
2021/01/03 06:24:07;;;;;;;37.97;16.77;;;2.70;95.20;;;;;;5027021;28;20025;-67
2021/01/03 06:26:45;;;;;;;33.95;16.33;;;2.70;95.00;;;;;;5025451;28;20037;-66
2021/01/03 06:29:22;;;;;;;40.58;16.65;;;2.60;95.10;;;;;;5038509;28;20120;-67
2021/01/03 06:32:12;;;;;;;34.92;15.88;;;2.60;95.10;;;;;;5027630;28;20044;-68
2021/01/03 06:34:48;;;;;;;33.22;15.02;;;2.70;95.20;;;;;;5041696;28;20504;-67
2021/01/03 06:37:28;;;;;;;41.35;17.55;;;2.70;95.20;;;;;;5045424;28;20105;-67
2021/01/03 06:40:05;;;;;;;38.78;17.45;;;2.70;95.10;;;;;;5043948;28;20021;-68
2021/01/03 06:42:43;;;;;;;42.53;16.27;;;2.70;95.10;;;;;;5044346;28;20505;-68
2021/01/03 06:45:43;;;;;;;35.72;15.70;;;2.70;95.20;;;;;;5032152;28;20053;-67
2021/01/03 06:48:11;;;;;;;33.47;15.25;;;2.70;95.10;;;;;;5038862;28;20100;-64
2021/01/03 06:50:46;;;;;;;41.15;16.23;;;2.70;95.20;;;;;;5045681;28;20026;-65
2021/01/03 06:53:44;;;;;;;32.13;14.50;;;2.70;95.10;;;;;;5039386;28;20647;-66
2021/01/03 06:56:37;;;;;;;33.30;15.18;;;2.70;95.20;;;;;;5044210;28;20029;-66
2021/01/03 06:59:09;;;;;;;34.75;14.90;;;2.70;95.10;;;;;;5044293;28;20028;-67
2021/01/03 07:01:37;;;;;;;30.30;14.75;;;2.70;95.10;;;;;;5042127;28;20029;-67
2021/01/03 07:04:13;;;;;;;33.95;14.70;;;2.60;95.10;;;;;;5043920;28;20013;-68
2021/01/03 07:06:40;;;;;;;35.28;15.35;;;2.60;95.00;;;;;;5028420;28;20491;-67
2021/01/03 07:09:09;;;;;;;29.70;13.60;;;2.70;95.00;;;;;;5046579;28;20078;-68
2021/01/03 07:11:53;;;;;;;33.25;14.35;;;2.70;95.00;;;;;;5044788;28;20223;-67
2021/01/03 07:14:22;;;;;;;28.40;13.35;;;2.70;95.00;;;;;;5040794;28;20109;-68
2021/01/03 07:17:14;;;;;;;27.17;13.88;;;2.70;95.00;;;;;;5040676;28;20523;-67
2021/01/03 07:19:48;;;;;;;26.33;13.63;;;2.70;95.00;;;;;;5024813;28;20047;-67
2021/01/03 07:22:39;;;;;;;30.83;13.15;;;2.70;94.90;;;;;;5049193;28;20123;-68
2021/01/03 07:25:14;;;;;;;32.72;14.55;;;2.80;94.80;;;;;;5047672;28;20032;-67
2021/01/03 07:28:05;;;;;;;27.98;13.73;;;2.70;94.90;;;;;;5048279;28;20029;-68
2021/01/03 07:30:42;;;;;;;28.65;12.77;;;2.70;94.90;;;;;;5023375;28;20063;-68
2021/01/03 07:33:17;;;;;;;29.73;13.25;;;2.70;94.90;;;;;;5031528;28;20029;-67
2021/01/03 07:35:43;;;;;;;26.98;13.23;;;2.80;94.70;;;;;;5047591;28;20029;-67
2021/01/03 07:38:24;;;;;;;27.15;13.00;;;2.70;94.50;;;;;;5039081;28;20013;-67
2021/01/03 07:40:54;;;;;;;25.15;12.73;;;2.70;94.70;;;;;;5021634;28;20025;-67
2021/01/03 07:43:21;;;;;;;27.60;12.98;;;2.70;94.60;;;;;;5032952;28;20227;-68
2021/01/03 07:45:47;;;;;;;29.25;12.82;;;2.70;94.80;;;;;;5049020;28;20167;-68
2021/01/03 07:48:38;;;;;;;25.27;13.45;;;2.70;94.90;;;;;;5046604;28;20044;-67
2021/01/03 07:51:09;;;;;;;28.23;12.43;;;2.70;94.90;;;;;;5042693;28;20029;-68
2021/01/03 07:53:35;;;;;;;;;;;2.70;95.00;;;;;;5046857;28;20545;-67
2021/01/03 07:56:17;;;;;;;24.50;12.02;;;2.70;94.80;;;;;;5038774;28;20293;-68
2021/01/03 07:58:43;;;;;;;24.60;11.32;;;2.70;94.80;;;;;;5042403;28;20070;-68
2021/01/03 08:01:15;;;;;;;21.90;11.60;;;2.70;94.40;;;;;;5043121;28;20028;-68
2021/01/03 08:03:40;;;;;;;23.50;11.50;;;2.70;94.50;;;;;;5042843;28;20085;-65
2021/01/03 08:06:08;;;;;;;22.88;11.95;;;2.70;94.50;;;;;;5038170;28;20050;-65
2021/01/03 08:08:35;;;;;;;23.67;11.80;;;2.70;94.50;;;;;;4984237;28;20047;-66
2021/01/03 08:11:06;;;;;;;23.52;12.13;;;2.70;94.20;;;;;;5018951;28;20021;-66
2021/01/03 08:13:40;;;;;;;24.30;11.00;;;2.70;94.20;;;;;;5048095;28;20112;-65
2021/01/03 08:16:05;;;;;;;19.98;11.07;;;2.70;94.30;;;;;;5041413;28;20043;-65
2021/01/03 08:18:45;;;;;;;21.20;9.70;;;2.70;94.30;;;;;;5033363;28;20036;-66
2021/01/03 08:21:16;;;;;;;21.08;10.88;;;2.70;94.10;;;;;;5043633;28;20021;-67
2021/01/03 08:23:42;;;;;;;18.67;10.18;;;2.70;93.90;;;;;;5046379;28;20044;-66
2021/01/03 08:26:19;;;;;;;19.15;10.02;;;2.70;93.90;;;;;;5044402;28;20024;-67
2021/01/03 08:29:01;;;;;;;20.92;10.85;;;2.70;93.90;;;;;;5025627;28;20025;-66
2021/01/03 08:31:29;;;;;;;21.63;10.77;;;2.70;93.80;;;;;;5041767;28;20421;-66
2021/01/03 08:33:58;;;;;;;18.92;10.32;;;2.70;93.80;;;;;;5034369;28;20498;-66
2021/01/03 08:36:33;;;;;;;20.63;9.07;;;2.70;93.80;;;;;;5026739;28;20100;-67
2021/01/03 08:39:05;;;;;;;18.20;9.40;;;2.70;93.10;;;;;;5033233;28;20045;-67
2021/01/03 08:41:36;;;;;;;14.65;8.25;;;2.70;93.20;;;;;;5036093;28;20028;-66
2021/01/03 08:44:03;;;;;;;16.55;7.80;;;2.70;92.90;;;;;;5042727;28;20167;-66
2021/01/03 08:46:31;;;;;;;15.57;7.72;;;2.70;92.90;;;;;;5047079;28;20177;-67
2021/01/03 08:49:06;;;;;;;10.30;5.57;;;2.70;92.70;;;;;;5042598;28;20029;-67
2021/01/03 08:51:32;;;;;;;11.27;6.13;;;2.70;90.00;;;;;;5038612;28;20078;-66
2021/01/03 08:54:07;;;;;;;11.32;5.45;;;2.80;89.80;;;;;;5037676;28;20159;-67
2021/01/03 08:56:52;;;;;;;12.05;5.45;;;2.80;89.10;;;;;;5042869;28;20131;-67
2021/01/03 08:59:18;;;;;;;9.63;5.20;;;2.80;88.90;;;;;;5041923;28;20098;-67
2021/01/03 09:01:44;;;;;;;12.70;6.50;;;2.70;89.50;;;;;;5042663;28;20519;-66
2021/01/03 09:04:19;;;;;;;13.23;6.10;;;2.80;89.40;;;;;;5042242;28;20024;-67
2021/01/03 09:06:51;;;;;;;9.73;5.68;;;2.80;89.40;;;;;;5040861;28;20086;-67
2021/01/03 09:09:20;;;;;;;11.82;6.35;;;2.80;89.30;;;;;;5038464;28;20466;-67
2021/01/03 09:11:58;;;;;;;12.88;6.32;;;2.80;89.70;;;;;;5031664;28;20032;-67
2021/01/03 09:14:50;;;;;;;11.18;5.28;;;2.80;89.50;;;;;;5041527;28;20029;-66
2021/01/03 09:17:20;;;;;;;10.20;6.28;;;2.90;89.20;;;;;;5039089;28;20441;-67
2021/01/03 09:19:57;;;;;;;12.75;6.07;;;2.90;89.40;;;;;;5037961;28;20040;-67
2021/01/03 09:22:35;;;;;;;10.80;6.13;;;2.90;89.60;;;;;;5047097;28;20017;-67
2021/01/03 09:25:04;;;;;;;12.65;6.50;;;3.00;89.70;;;;;;5023672;28;20276;-66
2021/01/03 09:27:32;;;;;;;11.18;6.20;;;3.00;90.40;;;;;;5028688;28;20029;-66
2021/01/03 09:30:09;;;;;;;11.73;6.13;;;3.10;90.20;;;;;;5044778;28;20021;-67
2021/01/03 09:32:36;;;;;;;12.55;6.53;;;3.20;89.70;;;;;;5047238;28;20098;-67
2021/01/03 09:35:19;;;;;;;13.23;7.13;;;3.30;89.90;;;;;;5042468;28;20408;-67
2021/01/03 09:38:14;;;;;;;14.35;7.60;;;3.30;89.90;;;;;;5041039;28;20497;-66
2021/01/03 09:40:51;;;;;;;14.60;7.50;;;3.30;89.70;;;;;;5003996;28;20237;-67
2021/01/03 09:43:36;;;;;;;11.82;7.07;;;3.40;89.20;;;;;;5026792;28;20123;-67
2021/01/03 09:46:20;;;;;;;14.48;7.60;;;3.50;89.80;;;;;;5042807;28;20021;-67
2021/01/03 09:48:46;;;;;;;14.23;7.75;;;3.50;90.10;;;;;;5042709;28;20036;-67
2021/01/03 09:51:49;;;;;;;13.10;7.68;;;3.60;90.00;;;;;;5046260;28;20033;-66
2021/01/03 09:54:22;;;;;;;13.95;7.88;;;3.60;89.90;;;;;;5032303;28;20084;-67
2021/01/03 09:56:51;;;;;;;14.25;7.78;;;3.70;89.90;;;;;;5033420;28;20453;-67
2021/01/03 09:59:21;;;;;;;12.15;7.50;;;3.90;89.70;;;;;;5031628;28;20586;-67
2021/01/03 10:01:49;;;;;;;13.63;7.35;;;4.00;89.20;;;;;;5046490;28;20043;-67
2021/01/03 10:04:17;;;;;;;12.00;6.90;;;4.00;89.10;;;;;;5034664;28;20148;-67
2021/01/03 10:06:46;;;;;;;15.40;7.55;;;4.10;89.00;;;;;;5046558;28;20067;-67
2021/01/03 10:09:28;;;;;;;11.27;6.57;;;4.20;87.10;;;;;;5021269;28;20100;-67
2021/01/03 10:11:54;;;;;;;11.77;6.30;;;4.40;87.60;;;;;;5026329;28;20037;-67
2021/01/03 10:14:34;;;;;;;11.60;6.80;;;4.50;87.50;;;;;;5033691;28;20025;-67
2021/01/03 10:17:32;;;;;;;11.90;5.82;;;4.70;87.30;;;;;;5046328;28;20072;-67
2021/01/03 10:19:58;;;;;;;10.88;6.15;;;4.80;86.00;;;;;;4999368;28;20038;-67
2021/01/03 10:22:43;;;;;;;10.48;5.90;;;4.80;84.80;;;;;;5026108;28;20417;-66
2021/01/03 10:25:14;;;;;;;10.15;5.35;;;4.90;84.80;;;;;;5043980;28;20116;-67
2021/01/03 10:27:41;;;;;;;9.77;5.82;;;5.00;84.70;;;;;;5044280;28;20028;-67
2021/01/03 10:30:08;;;;;;;9.07;5.82;;;5.10;85.40;;;;;;5043531;28;20114;-67
2021/01/03 10:32:38;;;;;;;9.13;5.28;;;5.00;84.20;;;;;;5045759;28;20085;-67
2021/01/03 10:35:06;;;;;;;8.50;4.53;;;4.80;84.00;;;;;;5035010;28;20029;-67
2021/01/03 10:37:31;;;;;;;8.75;4.55;;;4.70;83.50;;;;;;5031439;28;20029;-66
2021/01/03 10:39:57;;;;;;;8.02;4.53;;;4.60;83.50;;;;;;5033981;28;20113;-67
2021/01/03 10:42:23;;;;;;;7.97;4.60;;;4.40;84.90;;;;;;5049775;28;20095;-66
2021/01/03 10:44:48;;;;;;;9.18;5.43;;;4.20;85.50;;;;;;5048186;28;20162;-67
2021/01/03 10:47:14;;;;;;;8.10;4.88;;;4.10;85.30;;;;;;5049573;28;20064;-67
2021/01/03 10:49:40;;;;;;;8.15;4.45;;;4.00;86.00;;;;;;5043172;28;20131;-66
2021/01/03 10:52:06;;;;;;;9.57;4.72;;;4.00;85.90;;;;;;5047663;28;20077;-67
2021/01/03 10:54:33;;;;;;;9.63;4.68;;;3.90;86.10;;;;;;5042323;28;20105;-66
2021/01/03 10:56:59;;;;;;;8.55;4.93;;;3.80;85.30;;;;;;5049065;28;20059;-67
2021/01/03 10:59:26;;;;;;;7.63;4.38;;;3.80;85.80;;;;;;5048129;28;20025;-67
2021/01/03 11:01:52;;;;;;;8.60;4.35;;;3.70;85.80;;;;;;5045375;28;20029;-66
2021/01/03 11:04:20;;;;;;;7.88;4.57;;;3.60;86.30;;;;;;5046481;28;20025;-67
2021/01/03 11:06:49;;;;;;;8.05;4.55;;;3.60;86.50;;;;;;5048994;28;20481;-66
2021/01/03 11:09:20;;;;;;;7.30;4.13;;;3.60;86.40;;;;;;5037736;28;20029;-67
2021/01/03 11:11:46;;;;;;;7.47;3.75;;;3.50;86.80;;;;;;5048924;28;20489;-66
2021/01/03 11:14:12;;;;;;;7.00;4.00;;;3.50;86.70;;;;;;5039210;28;20063;-67
2021/01/03 11:16:40;;;;;;;7.82;3.78;;;3.40;86.00;;;;;;5049432;28;20520;-67
2021/01/03 11:19:08;;;;;;;6.07;3.85;;;3.40;86.40;;;;;;5044531;28;20029;-67
2021/01/03 11:21:35;;;;;;;6.53;3.35;;;3.40;86.20;;;;;;5031047;28;20101;-67
2021/01/03 11:24:01;;;;;;;8.43;4.47;;;3.50;86.10;;;;;;5046525;28;20071;-67
2021/01/03 11:26:29;;;;;;;6.07;3.60;;;3.50;86.60;;;;;;5047963;28;20373;-67
2021/01/03 11:28:55;;;;;;;7.05;3.90;;;3.50;86.60;;;;;;5048071;28;20036;-66
2021/01/03 11:31:21;;;;;;;7.65;4.15;;;3.50;86.70;;;;;;5047902;28;20056;-67
2021/01/03 11:33:46;;;;;;;6.85;3.35;;;3.50;86.90;;;;;;5046696;28;20057;-66
2021/01/03 11:36:17;;;;;;;7.38;3.78;;;3.50;86.90;;;;;;5044720;28;20028;-66
2021/01/03 11:38:43;;;;;;;6.63;3.87;;;3.60;87.30;;;;;;5048847;28;20040;-66
2021/01/03 11:41:11;;;;;;;8.23;3.53;;;3.60;86.30;;;;;;5048059;28;20281;-67
2021/01/03 11:43:37;;;;;;;6.75;3.08;;;3.60;86.20;;;;;;5042620;28;20056;-67
2021/01/03 11:46:02;;;;;;;7.47;3.72;;;3.70;86.10;;;;;;5045621;28;20138;-66
2021/01/03 11:48:28;;;;;;;7.72;3.67;;;3.70;86.30;;;;;;5045284;28;20037;-66
2021/01/03 11:50:53;;;;;;;5.60;3.03;;;3.70;86.40;;;;;;5029103;28;20025;-67
2021/01/03 11:53:19;;;;;;;5.38;2.97;;;3.70;86.70;;;;;;5044580;28;20036;-67
2021/01/03 11:55:44;;;;;;;5.88;3.00;;;3.70;86.70;;;;;;5040138;28;20021;-67
2021/01/03 11:58:10;;;;;;;6.00;2.97;;;3.70;86.10;;;;;;5042532;28;20434;-67
2021/01/03 12:00:36;;;;;;;6.10;2.63;;;3.80;86.30;;;;;;5045687;28;20017;-66
2021/01/03 12:03:01;;;;;;;5.13;2.95;;;3.70;86.70;;;;;;5048239;28;20035;-68
2021/01/03 12:05:27;;;;;;;6.40;3.33;;;3.60;86.20;;;;;;5045863;28;20577;-67
2021/01/03 12:07:52;;;;;;;5.25;2.95;;;3.60;86.70;;;;;;5043518;28;20110;-66
2021/01/03 12:10:18;;;;;;;6.85;3.17;;;3.50;86.50;;;;;;5042691;28;20158;-66
2021/01/03 12:12:43;;;;;;;6.72;3.50;;;3.50;87.00;;;;;;5110791;22;20058;-67
2021/01/03 12:15:09;;;;;;;5.10;2.92;;;3.50;87.10;;;;;;5087209;28;20024;-67
2021/01/03 12:17:35;;;;;;;5.70;2.83;;;3.50;87.30;;;;;;5103946;28;20476;-67
2021/01/03 12:20:01;;;;;;;5.35;3.00;;;3.50;87.70;;;;;;5102850;28;20031;-67
2021/01/03 12:22:26;;;;;;;5.85;2.92;;;3.50;87.20;;;;;;5102730;28;20036;-67
2021/01/03 12:24:52;;;;;;;6.32;3.10;;;3.60;87.60;;;;;;5086330;28;20222;-67
2021/01/03 12:27:19;;;;;;;5.13;2.95;;;3.70;86.50;;;;;;5088618;28;20020;-67
2021/01/03 12:29:45;;;;;;;4.65;2.97;;;3.80;86.80;;;;;;5086214;28;20048;-67
2021/01/03 12:32:12;;;;;;;5.15;2.70;;;3.80;86.10;;;;;;5081585;28;20484;-67
2021/01/03 12:34:38;;;;;;;6.10;2.70;;;3.80;85.90;;;;;;5072230;28;20108;-67
2021/01/03 12:37:07;;;;;;;6.88;3.08;;;3.80;85.50;;;;;;5059086;28;20433;-67
2021/01/03 12:39:33;;;;;;;6.72;3.45;;;3.80;85.30;;;;;;5073093;28;20092;-67
2021/01/03 12:42:00;;;;;;;5.88;2.88;;;3.80;84.80;;;;;;5083940;28;20026;-67
2021/01/03 12:44:26;;;;;;;7.95;3.30;;;3.80;85.00;;;;;;5086663;28;20035;-67
2021/01/03 12:46:52;;;;;;;4.60;2.70;;;3.80;84.80;;;;;;5088094;28;20392;-67
2021/01/03 12:49:18;;;;;;;8.15;3.38;;;3.80;84.90;;;;;;5086671;28;20250;-67
2021/01/03 12:51:44;;;;;;;5.43;2.88;;;3.70;84.80;;;;;;5066733;28;20479;-67
2021/01/03 12:54:09;;;;;;;5.22;2.83;;;3.70;84.20;;;;;;5068378;28;20040;-67
2021/01/03 12:56:36;;;;;;;4.45;2.85;;;3.70;84.50;;;;;;5083461;28;20036;-67
2021/01/03 12:59:03;;;;;;;5.22;2.60;;;3.70;83.80;;;;;;5086931;28;20095;-67
2021/01/03 13:01:33;;;;;;;5.32;2.88;;;3.70;84.70;;;;;;5086351;28;20024;-67
2021/01/03 13:04:00;;;;;;;5.63;3.25;;;3.70;84.40;;;;;;5085216;28;20020;-67
2021/01/03 13:06:26;;;;;;;5.45;2.88;;;3.70;84.40;;;;;;5085861;28;20089;-67